createdAt,value
2022-08-28T00:00:39.725Z,9.48
2022-08-28T00:03:08.173Z,8.65
2022-08-28T00:05:36.296Z,8.70
2022-08-28T00:08:04.219Z,8.45
2022-08-28T00:10:32.378Z,8.88
2022-08-28T00:13:00.229Z,8.07
2022-08-28T00:15:35.233Z,7.35
2022-08-28T00:18:04.271Z,7.78
2022-08-28T00:20:33.388Z,7.10
2022-08-28T00:23:04.857Z,7.88
2022-08-28T00:25:34.291Z,7.82
2022-08-28T00:28:10.497Z,7.03
2022-08-28T00:30:45.125Z,7.45
2022-08-28T00:33:23.797Z,7.32
2022-08-28T00:35:55.451Z,7.32
2022-08-28T00:38:26.191Z,7.10
2022-08-28T00:40:58.359Z,7.03
2022-08-28T00:43:45.583Z,6.95
2022-08-28T00:46:17.033Z,7.57
2022-08-28T00:48:44.751Z,7.35
2022-08-28T00:51:34.161Z,8.30
2022-08-28T00:54:07.388Z,7.90
2022-08-28T00:56:38.449Z,7.63
2022-08-28T00:59:10.652Z,7.43
2022-08-28T01:01:39.251Z,7.25
2022-08-28T01:04:07.367Z,7.28
2022-08-28T01:06:36.912Z,7.32
2022-08-28T01:09:06.375Z,7.22
2022-08-28T01:11:34.510Z,7.45
2022-08-28T01:14:05.090Z,6.95
2022-08-28T01:16:33.995Z,8.18
2022-08-28T01:19:05.912Z,7.00
2022-08-28T01:21:51.741Z,7.43
2022-08-28T01:24:20.848Z,7.55
2022-08-28T01:26:48.460Z,7.20
2022-08-28T01:29:16.446Z,7.00
2022-08-28T01:31:48.901Z,6.90
2022-08-28T01:34:19.157Z,7.18
2022-08-28T01:36:48.579Z,7.13
2022-08-28T01:39:19.495Z,6.65
2022-08-28T01:41:52.053Z,7.50
2022-08-28T01:44:25.100Z,7.15
2022-08-28T01:46:54.637Z,6.83
2022-08-28T01:49:29.215Z,7.38
2022-08-28T01:51:58.366Z,6.78
2022-08-28T01:54:26.551Z,6.55
2022-08-28T01:56:55.412Z,6.20
2022-08-28T01:59:26.016Z,6.63
2022-08-28T02:01:55.218Z,6.45
2022-08-28T02:04:29.645Z,6.53
2022-08-28T02:07:00.316Z,6.55
2022-08-28T02:09:28.039Z,6.50
2022-08-28T02:11:58.900Z,5.90
2022-08-28T02:14:29.391Z,6.57
2022-08-28T02:16:57.069Z,7.13
2022-08-28T02:19:27.683Z,6.28
2022-08-28T02:21:55.588Z,6.07
2022-08-28T02:24:33.536Z,7.03
2022-08-28T02:27:13.933Z,6.78
2022-08-28T02:29:45.781Z,6.10
2022-08-28T02:32:37.745Z,6.40
2022-08-28T02:35:32.513Z,6.70
2022-08-28T02:38:13.418Z,6.13
2022-08-28T02:40:55.311Z,6.15
2022-08-28T02:46:32.477Z,6.00
2022-08-28T02:49:14.783Z,6.07
2022-08-28T02:51:51.151Z,6.10
2022-08-28T02:54:41.655Z,6.78
2022-08-28T02:57:21.948Z,6.68
2022-08-28T03:03:03.831Z,6.32
2022-08-28T03:05:38.852Z,6.53
2022-08-28T03:08:06.914Z,6.30
2022-08-28T03:10:35.047Z,6.30
2022-08-28T03:13:02.708Z,6.10
2022-08-28T03:15:30.474Z,5.95
2022-08-28T03:17:58.257Z,5.95
2022-08-28T03:20:25.901Z,5.90
2022-08-28T03:23:11.942Z,6.28
2022-08-28T03:25:39.848Z,5.93
2022-08-28T03:28:07.565Z,6.60
2022-08-28T03:30:35.300Z,5.97
2022-08-28T03:33:03.210Z,6.00
2022-08-28T03:35:31.001Z,5.80
2022-08-28T03:37:58.633Z,6.07
2022-08-28T03:40:27.527Z,6.05
2022-08-28T03:42:55.240Z,6.38
2022-08-28T03:45:22.867Z,6.13
2022-08-28T03:47:51.324Z,5.82
2022-08-28T03:50:23.111Z,6.23
2022-08-28T03:52:55.323Z,5.90
2022-08-28T03:55:23.010Z,5.90
2022-08-28T03:57:51.532Z,6.80
2022-08-28T04:00:20.358Z,5.63
2022-08-28T04:02:48.197Z,5.77
2022-08-28T04:05:17.585Z,5.87
2022-08-28T04:07:45.618Z,5.70
2022-08-28T04:10:13.697Z,5.53
2022-08-28T04:13:07.962Z,4.70
2022-08-28T04:15:35.591Z,5.20
2022-08-28T04:18:03.527Z,4.87
2022-08-28T04:20:31.193Z,4.93
2022-08-28T04:22:58.911Z,5.20
2022-08-28T04:25:28.094Z,4.33
2022-08-28T04:27:55.777Z,4.82
2022-08-28T04:30:24.296Z,4.80
2022-08-28T04:32:51.928Z,4.83
2022-08-28T04:35:19.681Z,4.55
2022-08-28T04:37:47.731Z,4.43
2022-08-28T04:40:16.003Z,4.57
2022-08-28T04:42:47.465Z,3.80
2022-08-28T04:45:15.247Z,4.50
2022-08-28T04:47:54.461Z,4.43
2022-08-28T04:50:25.611Z,4.00
2022-08-28T04:56:15.650Z,4.17
2022-08-28T05:01:42.691Z,4.47
2022-08-28T05:04:35.563Z,4.13
2022-08-28T05:07:03.510Z,3.97
2022-08-28T05:09:33.505Z,4.63
2022-08-28T05:12:05.695Z,4.20
2022-08-28T05:14:39.935Z,3.90
2022-08-28T05:17:09.322Z,4.10
2022-08-28T05:19:37.943Z,3.90
2022-08-28T05:22:05.791Z,4.63
2022-08-28T05:24:33.419Z,4.20
2022-08-28T05:27:04.222Z,4.10
2022-08-28T05:29:32.125Z,4.40
2022-08-28T05:31:59.815Z,3.70
2022-08-28T05:34:27.924Z,3.70
2022-08-28T05:36:55.687Z,3.83
2022-08-28T05:39:23.302Z,4.00
2022-08-28T05:41:51.041Z,3.60
2022-08-28T05:44:19.656Z,3.85
2022-08-28T05:46:48.230Z,3.95
2022-08-28T05:49:18.329Z,3.10
2022-08-28T05:54:30.575Z,3.67
2022-08-28T05:56:58.421Z,3.25
2022-08-28T05:59:26.454Z,3.13
2022-08-28T06:01:54.139Z,3.30
2022-08-28T06:04:27.085Z,3.63
2022-08-28T06:06:55.256Z,3.17
2022-08-28T06:09:29.389Z,3.10
2022-08-28T06:12:03.251Z,3.25
2022-08-28T06:14:32.445Z,3.47
2022-08-28T06:17:09.623Z,3.30
2022-08-28T06:19:41.335Z,3.05
2022-08-28T06:22:12.086Z,3.42
2022-08-28T06:25:13.799Z,3.53
2022-08-28T06:27:54.059Z,3.38
2022-08-28T06:30:31.557Z,3.45
2022-08-28T06:33:08.354Z,3.10
2022-08-28T06:35:49.572Z,3.22
2022-08-28T06:38:37.490Z,2.90
2022-08-28T06:41:15.524Z,3.25
2022-08-28T06:43:43.456Z,2.80
2022-08-28T06:46:21.765Z,3.10
2022-08-28T06:48:55.276Z,3.20
2022-08-28T06:51:25.001Z,2.70
2022-08-28T06:54:04.024Z,2.60
2022-08-28T06:56:37.368Z,2.78
2022-08-28T06:59:09.386Z,2.80
2022-08-28T07:01:37.439Z,2.75
2022-08-28T07:04:22.566Z,3.22
2022-08-28T07:06:54.903Z,2.60
2022-08-28T07:09:38.879Z,2.40
2022-08-28T07:12:20.021Z,2.40
2022-08-28T07:15:07.600Z,2.20
2022-08-28T07:17:45.392Z,2.80
2022-08-28T07:20:30.283Z,3.15
2022-08-28T07:29:32.443Z,2.55
2022-08-28T07:32:15.256Z,2.50
2022-08-28T07:35:15.636Z,2.60
2022-08-28T07:38:04.058Z,2.38
2022-08-28T07:40:43.003Z,2.47
2022-08-28T07:43:55.109Z,3.00
2022-08-28T07:46:52.699Z,2.53
2022-08-28T07:49:41.719Z,2.70
2022-08-28T07:52:26.490Z,2.15
2022-08-28T07:55:30.055Z,2.38
2022-08-28T07:58:28.354Z,2.63
2022-08-28T08:01:21.914Z,2.28
2022-08-28T08:04:04.560Z,2.70
2022-08-28T08:07:00.101Z,2.47
2022-08-28T08:09:33.318Z,2.42
2022-08-28T08:12:01.099Z,2.75
2022-08-28T08:14:28.900Z,2.28
2022-08-28T08:16:56.552Z,2.78
2022-08-28T08:19:24.219Z,2.38
2022-08-28T08:21:54.984Z,2.55
2022-08-28T08:24:28.402Z,2.60
2022-08-28T08:27:00.904Z,2.47
2022-08-28T08:29:36.212Z,2.20
2022-08-28T08:32:07.102Z,2.72
2022-08-28T08:34:38.658Z,2.25
2022-08-28T08:37:07.022Z,2.55
2022-08-28T08:39:36.203Z,2.40
2022-08-28T08:42:09.242Z,2.60
2022-08-28T08:44:43.330Z,2.30
2022-08-28T08:47:20.038Z,2.42
2022-08-28T08:49:57.071Z,2.83
2022-08-28T08:52:52.215Z,2.75
2022-08-28T08:55:31.961Z,2.20
2022-08-28T08:58:05.145Z,2.25
2022-08-28T09:00:46.655Z,2.15
2022-08-28T09:03:20.196Z,2.22
2022-08-28T09:06:06.338Z,2.17
2022-08-28T09:08:45.690Z,2.30
2022-08-28T09:11:41.173Z,2.10
2022-08-28T09:14:39.143Z,2.20
2022-08-28T09:17:08.640Z,2.25
2022-08-28T09:19:36.596Z,2.28
2022-08-28T09:22:04.756Z,2.15
2022-08-28T09:24:36.819Z,2.47
2022-08-28T09:27:34.968Z,2.22
2022-08-28T09:30:10.361Z,2.58
2022-08-28T09:32:44.459Z,1.83
2022-08-28T09:35:27.411Z,2.28
2022-08-28T09:37:56.137Z,11.85
2022-08-28T09:40:48.057Z,1.70
2022-08-28T09:43:27.376Z,2.00
2022-08-28T09:46:00.057Z,4.00
2022-08-28T09:48:37.538Z,2.80
2022-08-28T09:51:09.369Z,2.58
2022-08-28T09:53:50.903Z,2.08
2022-08-28T09:56:24.809Z,1.95
2022-08-28T09:59:00.116Z,2.10
2022-08-28T10:01:45.235Z,1.90
2022-08-28T10:04:48.384Z,1.85
2022-08-28T10:07:30.245Z,2.40
2022-08-28T10:10:25.219Z,1.90
2022-08-28T10:13:27.725Z,2.92
2022-08-28T10:16:06.152Z,2.17
2022-08-28T10:18:49.435Z,2.30
2022-08-28T10:21:32.283Z,2.20
2022-08-28T10:24:14.768Z,2.10
2022-08-28T10:27:17.298Z,2.00
2022-08-28T10:30:08.812Z,2.10
2022-08-28T10:32:52.371Z,2.20
2022-08-28T10:35:25.269Z,1.88
2022-08-28T10:38:16.800Z,2.00
2022-08-28T10:41:10.617Z,1.83
2022-08-28T10:43:48.104Z,2.65
2022-08-28T10:46:37.043Z,1.90
2022-08-28T10:49:15.209Z,2.38
2022-08-28T10:51:57.115Z,1.98
2022-08-28T10:54:42.452Z,1.90
2022-08-28T10:57:36.128Z,2.00
2022-08-28T11:00:14.743Z,1.92
2022-08-28T11:02:47.116Z,1.95
2022-08-28T11:05:19.742Z,2.15
2022-08-28T11:08:05.286Z,2.30
2022-08-28T11:10:35.654Z,1.98
2022-08-28T11:13:06.192Z,2.03
2022-08-28T11:15:36.996Z,1.98
2022-08-28T11:18:08.236Z,2.05
2022-08-28T11:20:37.739Z,2.00
2022-08-28T11:23:35.559Z,2.30
2022-08-28T11:26:08.638Z,2.08
2022-08-28T11:28:36.420Z,2.10
2022-08-28T11:31:04.217Z,2.10
2022-08-28T11:33:36.890Z,2.08
2022-08-28T11:36:12.783Z,2.08
2022-08-28T11:38:43.368Z,2.58
2022-08-28T11:41:22.519Z,2.00
2022-08-28T11:44:14.480Z,2.20
2022-08-28T11:46:50.276Z,2.45
2022-08-28T11:49:29.481Z,2.83
2022-08-28T11:52:15.046Z,2.70
2022-08-28T11:55:04.722Z,2.45
2022-08-28T11:57:47.750Z,2.40
2022-08-28T12:00:31.604Z,2.22
2022-08-28T12:03:08.416Z,2.53
2022-08-28T12:05:40.133Z,2.38
2022-08-28T12:08:10.765Z,2.28
2022-08-28T12:10:38.383Z,2.42
2022-08-28T12:13:08.445Z,2.45
2022-08-28T12:15:37.309Z,2.38
2022-08-28T12:18:11.142Z,2.20
2022-08-28T12:20:51.099Z,2.38
2022-08-28T12:23:27.408Z,2.15
2022-08-28T12:26:21.649Z,2.53
2022-08-28T12:28:57.407Z,2.30
2022-08-28T12:31:58.167Z,2.08
2022-08-28T12:34:38.282Z,2.30
2022-08-28T12:37:23.526Z,2.38
2022-08-28T12:39:52.828Z,2.15
2022-08-28T12:42:24.427Z,2.30
2022-08-28T12:44:52.267Z,2.30
2022-08-28T12:47:22.889Z,2.20
2022-08-28T12:49:50.673Z,2.42
2022-08-28T12:52:21.469Z,2.50
2022-08-28T12:54:50.944Z,1.80
2022-08-28T12:57:22.773Z,2.10
2022-08-28T12:59:55.879Z,1.50
2022-08-28T13:02:31.801Z,2.00
2022-08-28T13:05:09.107Z,2.05
2022-08-28T13:07:51.907Z,1.85
2022-08-28T13:10:26.517Z,2.05
2022-08-28T13:13:05.199Z,1.90
2022-08-28T13:15:45.516Z,2.25
2022-08-28T13:18:49.794Z,1.92
2022-08-28T13:21:30.800Z,2.10
2022-08-28T13:24:21.929Z,2.00
2022-08-28T13:26:59.814Z,1.83
2022-08-28T13:29:27.717Z,2.30
2022-08-28T13:31:59.304Z,1.92
2022-08-28T13:34:30.766Z,1.90
2022-08-28T13:37:01.261Z,1.90
2022-08-28T13:39:31.666Z,1.80
2022-08-28T13:42:12.544Z,2.17
2022-08-28T13:44:50.449Z,1.88
2022-08-28T13:47:18.118Z,1.85
2022-08-28T13:49:46.663Z,1.90
2022-08-28T13:52:14.489Z,2.20
2022-08-28T13:54:43.763Z,2.10
2022-08-28T13:57:13.857Z,2.30
2022-08-28T13:59:41.993Z,1.88
2022-08-28T14:02:32.135Z,1.90
2022-08-28T14:05:00.239Z,2.42
2022-08-28T14:07:29.416Z,1.92
2022-08-28T14:09:57.544Z,2.45
2022-08-28T14:12:31.410Z,2.03
2022-08-28T14:15:02.504Z,2.10
2022-08-28T14:17:30.598Z,2.30
2022-08-28T14:20:00.253Z,2.00
2022-08-28T14:22:28.436Z,2.28
2022-08-28T14:24:56.128Z,2.30
2022-08-28T14:27:23.775Z,2.80
2022-08-28T14:29:53.328Z,2.65
2022-08-28T14:32:21.103Z,2.60
2022-08-28T14:34:50.521Z,2.65
2022-08-28T14:37:18.280Z,2.50
2022-08-28T14:39:46.080Z,2.72
2022-08-28T14:42:13.735Z,3.83
2022-08-28T14:44:41.355Z,3.90
2022-08-28T14:47:09.008Z,2.80
2022-08-28T14:49:36.702Z,2.80
2022-08-28T14:52:04.605Z,2.88
2022-08-28T14:54:32.290Z,2.72
2022-08-28T14:56:59.943Z,2.80
2022-08-28T14:59:29.835Z,2.67
2022-08-28T15:02:00.006Z,2.92
2022-08-28T15:04:37.550Z,2.90
2022-08-28T15:07:08.598Z,2.70
2022-08-28T15:09:39.368Z,2.13
2022-08-28T15:12:07.537Z,2.78
2022-08-28T15:14:36.161Z,2.78
2022-08-28T15:17:04.349Z,3.05
2022-08-28T15:19:32.260Z,3.20
2022-08-28T15:22:00.824Z,2.97
2022-08-28T15:24:31.360Z,3.25
2022-08-28T15:26:59.731Z,3.10
2022-08-28T15:29:29.797Z,3.42
2022-08-28T15:31:58.402Z,3.17
2022-08-28T15:34:28.241Z,3.20
2022-08-28T15:36:57.518Z,4.85
2022-08-28T15:39:45.587Z,4.43
2022-08-28T15:42:16.545Z,4.18
2022-08-28T15:44:44.375Z,4.18
2022-08-28T15:47:13.732Z,4.10
2022-08-28T15:49:44.826Z,3.50
2022-08-28T15:52:18.671Z,4.13
2022-08-28T15:54:49.594Z,3.70
2022-08-28T15:57:17.565Z,3.60
2022-08-28T15:59:50.125Z,3.65
2022-08-28T16:02:21.907Z,4.15
2022-08-28T16:04:49.945Z,3.67
2022-08-28T16:07:19.251Z,3.97
2022-08-28T16:09:47.187Z,4.30
2022-08-28T16:12:15.134Z,4.80
2022-08-28T16:14:42.876Z,6.70
2022-08-28T16:17:11.472Z,3.92
2022-08-28T16:19:40.257Z,4.63
2022-08-28T16:22:15.904Z,4.97
2022-08-28T16:24:45.075Z,5.72
2022-08-28T16:27:15.505Z,4.70
2022-08-28T16:29:44.975Z,3.90
2022-08-28T16:32:13.705Z,8.88
2022-08-28T16:34:44.662Z,6.28
2022-08-28T16:37:13.260Z,5.97
2022-08-28T16:39:46.206Z,7.00
2022-08-28T16:42:14.814Z,8.15
2022-08-28T16:44:42.426Z,7.85
2022-08-28T16:47:10.169Z,11.77
2022-08-28T16:49:37.835Z,18.73
2022-08-28T16:52:05.515Z,4.80
2022-08-28T16:54:33.416Z,4.50
2022-08-28T16:57:01.055Z,4.32
2022-08-28T16:59:28.805Z,4.10
2022-08-28T17:01:56.489Z,3.45
2022-08-28T17:04:25.659Z,3.20
2022-08-28T17:06:53.351Z,2.67
2022-08-28T17:09:23.274Z,3.13
2022-08-28T17:11:52.215Z,2.80
2022-08-28T17:14:21.825Z,2.80
2022-08-28T17:16:50.754Z,2.50
2022-08-28T17:19:19.398Z,2.90
2022-08-28T17:22:06.372Z,2.88
2022-08-28T17:24:33.995Z,2.97
2022-08-28T17:27:05.389Z,2.40
2022-08-28T17:29:34.712Z,2.30
2022-08-28T17:32:02.626Z,2.80
2022-08-28T17:34:30.713Z,2.92
2022-08-28T17:36:58.416Z,2.50
2022-08-28T17:39:26.064Z,2.55
2022-08-28T17:41:53.698Z,2.45
2022-08-28T17:44:21.416Z,2.10
2022-08-28T17:46:51.680Z,2.20
2022-08-28T17:49:19.500Z,2.53
2022-08-28T17:51:47.560Z,2.40
2022-08-28T17:54:18.303Z,2.00
2022-08-28T17:56:48.715Z,2.40
2022-08-28T17:59:19.518Z,2.40
2022-08-28T18:01:50.264Z,2.00
2022-08-28T18:04:23.920Z,2.35
2022-08-28T18:06:55.071Z,2.15
2022-08-28T18:09:23.624Z,2.58
2022-08-28T18:11:52.238Z,2.10
2022-08-28T18:14:20.898Z,1.80
2022-08-28T18:16:48.679Z,2.03
2022-08-28T18:19:16.634Z,2.25
2022-08-28T18:21:45.017Z,2.10
2022-08-28T18:24:13.085Z,1.85
2022-08-28T18:26:42.542Z,1.95
2022-08-28T18:29:10.908Z,1.95
2022-08-28T18:31:38.985Z,1.80
2022-08-28T18:34:07.156Z,2.13
2022-08-28T18:36:37.051Z,2.10
2022-08-28T18:39:04.680Z,2.10
2022-08-28T18:41:43.102Z,2.00
2022-08-28T18:44:14.164Z,2.25
2022-08-28T18:46:43.118Z,2.03
2022-08-28T18:49:11.887Z,2.17
2022-08-28T18:51:41.706Z,1.80
2022-08-28T18:54:10.446Z,1.65
2022-08-28T18:56:39.992Z,1.73
2022-08-28T18:59:09.066Z,2.28
2022-08-28T19:01:36.943Z,2.00
2022-08-28T19:04:05.929Z,2.05
2022-08-28T19:06:34.267Z,2.15
2022-08-28T19:09:02.057Z,2.10
2022-08-28T19:11:30.223Z,2.10
2022-08-28T19:13:58.545Z,1.98
2022-08-28T19:16:26.186Z,1.92
2022-08-28T19:18:55.599Z,1.83
2022-08-28T19:21:23.279Z,1.90
2022-08-28T19:23:55.733Z,1.70
2022-08-28T19:26:25.437Z,1.98
2022-08-28T19:28:53.673Z,2.10
2022-08-28T19:31:22.502Z,1.90
2022-08-28T19:33:50.267Z,1.90
2022-08-28T19:36:18.614Z,2.20
2022-08-28T19:38:46.261Z,2.13
2022-08-28T19:41:14.454Z,2.35
2022-08-28T19:43:43.377Z,2.08
2022-08-28T19:46:19.601Z,1.77
2022-08-28T19:48:50.279Z,1.70
2022-08-28T19:51:23.424Z,2.05
2022-08-28T19:53:57.936Z,1.90
2022-08-28T19:56:31.477Z,1.80
2022-08-28T19:59:01.433Z,1.95
2022-08-28T20:01:31.267Z,1.85
2022-08-28T20:04:00.246Z,1.50
2022-08-28T20:06:30.963Z,1.52
2022-08-28T20:08:58.908Z,1.90
2022-08-28T20:11:30.408Z,2.00
2022-08-28T20:14:04.115Z,1.80
2022-08-28T20:16:35.864Z,1.70
2022-08-28T20:19:05.189Z,1.88
2022-08-28T20:21:37.112Z,1.85
2022-08-28T20:24:12.748Z,1.90
2022-08-28T20:26:41.247Z,1.90
2022-08-28T20:29:09.890Z,1.70
2022-08-28T20:31:40.401Z,1.90
2022-08-28T20:34:12.226Z,2.10
2022-08-28T20:36:39.901Z,2.10
2022-08-28T20:39:09.321Z,1.63
2022-08-28T20:41:39.381Z,1.83
2022-08-28T20:44:09.206Z,2.15
2022-08-28T20:46:40.790Z,1.95
2022-08-28T20:49:11.081Z,1.98
2022-08-28T20:51:58.870Z,2.20
2022-08-28T20:54:38.383Z,2.00
2022-08-28T20:57:09.331Z,2.30
2022-08-28T20:59:40.241Z,2.50
2022-08-28T21:02:13.814Z,2.50
2022-08-28T21:04:42.681Z,1.80
2022-08-28T21:07:11.349Z,2.10
2022-08-28T21:10:04.607Z,2.33
2022-08-28T21:12:27.226Z,2.83
2022-08-28T21:14:54.949Z,1.85
2022-08-28T21:17:29.112Z,2.00
2022-08-28T21:20:04.260Z,2.00
2022-08-28T21:22:32.922Z,2.30
2022-08-28T21:25:01.218Z,2.95
2022-08-28T21:27:29.584Z,2.70
2022-08-28T21:29:59.350Z,2.03
2022-08-28T21:32:28.672Z,2.05
2022-08-28T21:34:56.885Z,2.38
2022-08-28T21:37:24.566Z,1.92
2022-08-28T21:39:52.482Z,2.10
2022-08-28T21:42:24.006Z,1.83
2022-08-28T21:44:52.233Z,1.60
2022-08-28T21:47:22.901Z,1.92
2022-08-28T21:49:53.150Z,1.67
2022-08-28T21:52:23.336Z,1.83
2022-08-28T21:54:56.856Z,1.95
2022-08-28T21:57:24.920Z,2.40
2022-08-28T21:59:52.526Z,2.47
2022-08-28T22:02:20.707Z,2.78
2022-08-28T22:04:49.018Z,2.10
2022-08-28T22:07:17.963Z,2.13
2022-08-28T22:09:46.076Z,1.88
2022-08-28T22:12:13.696Z,1.98
2022-08-28T22:14:42.219Z,1.70
2022-08-28T22:17:11.523Z,2.00
2022-08-28T22:19:40.086Z,2.17
2022-08-28T22:22:27.063Z,1.77
2022-08-28T22:24:54.889Z,1.48
2022-08-28T22:27:23.069Z,1.67
2022-08-28T22:29:51.010Z,1.60
2022-08-28T22:32:22.236Z,2.00
2022-08-28T22:34:49.859Z,1.85
2022-08-28T22:37:17.468Z,1.90
2022-08-28T22:39:45.057Z,1.70
2022-08-28T22:42:12.700Z,2.20
2022-08-28T22:44:40.398Z,2.00
2022-08-28T22:47:08.572Z,1.73
2022-08-28T22:49:39.616Z,1.80
2022-08-28T22:52:10.559Z,2.03
2022-08-28T22:54:38.224Z,2.20
2022-08-28T22:57:06.017Z,2.20
2022-08-28T22:59:34.610Z,1.90
2022-08-28T23:02:03.692Z,2.00
2022-08-28T23:04:31.406Z,1.60
2022-08-28T23:06:59.111Z,1.80
2022-08-28T23:09:27.472Z,1.90
2022-08-28T23:11:55.105Z,2.07
2022-08-28T23:14:27.780Z,1.60
2022-08-28T23:16:55.959Z,1.67
2022-08-28T23:19:24.058Z,1.80
2022-08-28T23:21:52.413Z,1.73
2022-08-28T23:24:20.084Z,1.80
2022-08-28T23:26:47.712Z,1.77
2022-08-28T23:29:15.385Z,1.90
2022-08-28T23:31:43.494Z,1.97
2022-08-28T23:34:11.345Z,1.90
2022-08-28T23:36:40.906Z,1.60
2022-08-28T23:39:11.375Z,1.93
2022-08-28T23:41:39.201Z,1.63
2022-08-28T23:44:09.131Z,2.07
2022-08-28T23:46:37.298Z,1.70
2022-08-28T23:49:10.877Z,1.73
2022-08-28T23:51:39.583Z,1.97
2022-08-28T23:54:09.207Z,2.20
2022-08-28T23:56:37.822Z,2.30
2022-08-28T23:59:06.177Z,1.93
